createdAt,value
2022-08-22T00:01:07.626Z,97974.50
2022-08-22T00:03:07.477Z,97995.75
2022-08-22T00:03:50.102Z,97966.41
2022-08-22T00:06:57.990Z,97969.09
2022-08-22T00:09:35.801Z,97959.94
2022-08-22T00:12:50.574Z,97955.63
2022-08-22T00:15:52.461Z,97957.53
2022-08-22T00:19:02.943Z,97955.63
2022-08-22T00:21:55.153Z,97962.63
2022-08-22T00:24:28.590Z,97960.78
2022-08-22T00:27:10.053Z,97961.03
2022-08-22T00:29:45.813Z,97958.31
2022-08-22T00:32:20.567Z,97963.72
2022-08-22T00:35:00.684Z,97970.72
2022-08-22T00:37:45.032Z,97966.16
2022-08-22T00:40:36.850Z,97973.97
2022-08-22T00:43:27.733Z,97966.97
2022-08-22T00:46:09.345Z,97973.97
2022-08-22T00:48:46.095Z,97970.47
2022-08-22T00:51:42.846Z,97972.06
2022-08-22T00:54:32.150Z,97977.75
2022-08-22T00:57:19.670Z,97969.38
2022-08-22T01:00:16.059Z,97973.97
2022-08-22T01:02:52.762Z,97972.34
2022-08-22T01:05:23.859Z,97968.56
2022-08-22T01:07:51.235Z,97970.22
2022-08-22T01:10:30.393Z,97964.00
2022-08-22T01:13:07.064Z,97961.31
2022-08-22T01:15:37.378Z,97959.44
2022-08-22T01:18:28.866Z,97968.31
2022-08-22T01:21:24.381Z,97964.81
2022-08-22T01:24:33.899Z,97970.22
2022-08-22T01:27:41.561Z,97962.13
2022-08-22T01:30:40.950Z,97963.75
2022-08-22T01:33:39.310Z,97972.63
2022-08-22T01:36:22.099Z,97966.44
2022-08-22T01:39:13.554Z,97968.31
2022-08-22T01:42:25.597Z,97966.44
2022-08-22T01:45:23.264Z,97979.91
2022-08-22T01:48:00.873Z,97979.91
2022-08-22T01:50:41.631Z,97969.13
2022-08-22T01:53:22.929Z,97971.03
2022-08-22T01:55:56.306Z,97976.41
2022-08-22T01:58:29.831Z,97977.22
2022-08-22T02:01:19.705Z,97971.81
2022-08-22T02:04:01.616Z,97966.44
2022-08-22T02:06:58.530Z,97961.84
2022-08-22T02:09:38.209Z,97974.53
2022-08-22T02:12:21.419Z,97977.22
2022-08-22T02:14:54.689Z,97983.41
2022-08-22T02:17:31.466Z,97980.47
2022-08-22T02:20:10.425Z,97977.78
2022-08-22T02:22:38.148Z,97978.84
2022-08-22T02:25:21.645Z,97982.09
2022-08-22T02:28:04.028Z,97972.38
2022-08-22T02:31:00.329Z,97977.78
2022-08-22T02:33:46.192Z,97978.56
2022-08-22T02:36:54.608Z,97980.47
2022-08-22T02:39:37.560Z,97976.72
2022-08-22T02:42:33.782Z,97976.72
2022-08-22T02:45:34.438Z,97975.88
2022-08-22T02:48:10.614Z,97975.06
2022-08-22T02:51:24.650Z,97974.03
2022-08-22T02:54:28.128Z,97970.25
2022-08-22T02:57:02.636Z,97971.88
2022-08-22T02:59:38.469Z,97964.84
2022-08-22T03:02:37.093Z,97967.53
2022-08-22T03:05:28.672Z,97967.53
2022-08-22T03:08:22.408Z,97976.44
2022-08-22T03:10:56.595Z,97965.41
2022-08-22T03:13:41.113Z,97963.78
2022-08-22T03:16:27.081Z,97963.78
2022-08-22T03:19:31.815Z,97976.19
2022-08-22T03:22:02.340Z,97966.50
2022-08-22T03:24:49.920Z,97969.19
2022-08-22T03:27:49.484Z,97970.25
2022-08-22T03:30:22.878Z,97973.75
2022-08-22T03:33:13.773Z,97971.03
2022-08-22T03:35:47.176Z,97970.25
2022-08-22T03:38:14.812Z,97971.31
2022-08-22T03:41:12.586Z,97973.19
2022-08-22T03:43:58.936Z,97965.09
2022-08-22T03:47:02.831Z,97960.56
2022-08-22T03:49:49.062Z,97963.50
2022-08-22T03:52:28.487Z,97962.69
2022-08-22T03:55:14.091Z,97953.53
2022-08-22T03:58:28.250Z,97951.91
2022-08-22T04:01:08.524Z,97964.28
2022-08-22T04:03:54.563Z,97962.69
2022-08-22T04:06:40.838Z,97968.88
2022-08-22T04:09:45.345Z,97968.88
2022-08-22T04:12:48.449Z,97972.38
2022-08-22T04:15:59.357Z,97972.38
2022-08-22T04:18:36.238Z,97973.47
2022-08-22T04:21:30.686Z,97973.47
2022-08-22T04:24:25.135Z,97976.16
2022-08-22T04:27:14.499Z,97973.47
2022-08-22T04:29:52.180Z,97970.78
2022-08-22T04:32:36.670Z,97975.06
2022-08-22T04:35:17.740Z,97976.16
2022-08-22T04:37:58.634Z,97979.66
2022-08-22T04:40:38.712Z,97985.03
2022-08-22T04:43:34.096Z,97989.63
2022-08-22T04:46:26.324Z,97993.94
2022-08-22T04:49:25.741Z,97996.63
2022-08-22T04:52:09.287Z,98001.22
2022-08-22T04:55:11.950Z,97996.38
2022-08-22T04:57:48.579Z,97992.88
2022-08-22T05:00:17.202Z,97999.88
2022-08-22T05:02:51.205Z,98003.66
2022-08-22T05:05:26.946Z,97998.28
2022-08-22T05:07:59.698Z,98009.03
2022-08-22T05:10:38.316Z,98003.66
2022-08-22T05:13:25.066Z,98009.03
2022-08-22T05:15:57.090Z,98009.03
2022-08-22T05:18:33.034Z,98019.81
2022-08-22T05:21:05.156Z,98021.44
2022-08-22T05:23:42.389Z,98027.91
2022-08-22T05:26:13.314Z,98037.59
2022-08-22T05:28:52.493Z,98045.44
2022-08-22T05:31:28.005Z,98045.69
2022-08-22T05:34:06.008Z,98048.38
2022-08-22T05:36:59.616Z,98045.69
2022-08-22T05:39:29.852Z,98054.84
2022-08-22T05:42:00.253Z,98052.16
2022-08-22T05:44:32.277Z,98046.75
2022-08-22T05:47:23.502Z,98054.84
2022-08-22T05:50:19.013Z,98053.75
2022-08-22T05:53:07.793Z,98051.06
2022-08-22T05:55:39.519Z,98055.41
2022-08-22T05:58:22.295Z,98059.97
2022-08-22T06:01:16.495Z,98059.97
2022-08-22T06:04:10.713Z,98060.78
2022-08-22T06:06:46.734Z,98061.59
2022-08-22T06:09:38.847Z,98059.72
2022-08-22T06:12:21.892Z,98060.78
2022-08-22T06:15:23.038Z,98050.03
2022-08-22T06:18:05.056Z,98053.53
2022-08-22T06:20:55.397Z,98061.59
2022-08-22T06:23:46.946Z,98056.22
2022-08-22T06:26:21.042Z,98062.41
2022-08-22T06:28:54.715Z,98065.09
2022-08-22T06:31:26.699Z,98065.09
2022-08-22T06:34:17.503Z,98074.78
2022-08-22T06:36:48.953Z,98074.00
2022-08-22T06:39:16.542Z,98080.19
2022-08-22T06:41:59.210Z,98074.28
2022-08-22T06:44:34.317Z,98074.28
2022-08-22T06:47:06.207Z,98071.56
2022-08-22T06:49:37.668Z,98082.34
2022-08-22T06:52:09.567Z,98077.78
2022-08-22T06:54:43.158Z,98075.06
2022-08-22T06:57:34.829Z,98078.56
2022-08-22T07:00:10.301Z,98067.78
2022-08-22T07:02:44.869Z,98073.19
2022-08-22T07:05:18.234Z,98080.19
2022-08-22T07:07:46.184Z,98074.78
2022-08-22T07:10:15.970Z,98078.56
2022-08-22T07:12:46.894Z,98080.19
2022-08-22T07:15:35.365Z,98081.81
2022-08-22T07:18:09.798Z,98078.56
2022-08-22T07:20:41.964Z,98074.78
2022-08-22T07:23:13.065Z,98074.00
2022-08-22T07:26:19.175Z,98080.19
2022-08-22T07:28:59.210Z,98082.88
2022-08-22T07:32:06.158Z,98079.38
2022-08-22T07:35:13.145Z,98090.97
2022-08-22T07:38:16.709Z,98086.41
2022-08-22T07:40:46.900Z,98085.56
2022-08-22T07:43:41.457Z,98085.56
2022-08-22T07:46:29.906Z,98081.03
2022-08-22T07:49:13.062Z,98075.63
2022-08-22T07:51:46.304Z,98077.25
2022-08-22T07:54:27.139Z,98072.66
2022-08-22T07:57:04.726Z,98076.44
2022-08-22T07:59:37.099Z,98082.63
2022-08-22T08:02:10.961Z,98071.84
2022-08-22T08:04:41.022Z,98073.75
2022-08-22T08:07:11.497Z,98076.44
2022-08-22T08:09:44.469Z,98081.81
2022-08-22T08:12:15.285Z,98077.25
2022-08-22T08:14:46.169Z,98079.13
2022-08-22T08:17:31.846Z,98083.44
2022-08-22T08:20:06.641Z,98085.06
2022-08-22T08:22:38.467Z,98086.69
2022-08-22T08:25:08.224Z,98082.38
2022-08-22T08:27:57.293Z,98085.06
2022-08-22T08:30:39.070Z,98085.06
2022-08-22T08:33:26.053Z,98084.28
2022-08-22T08:36:05.367Z,98087.78
2022-08-22T08:38:43.544Z,98085.88
2022-08-22T08:41:35.385Z,98074.31
2022-08-22T08:44:11.758Z,98085.06
2022-08-22T08:47:13.220Z,98077.81
2022-08-22T08:50:10.441Z,98085.06
2022-08-22T08:52:43.886Z,98078.59
2022-08-22T08:55:34.485Z,98082.13
2022-08-22T08:59:01.087Z,98079.16
2022-08-22T09:01:37.538Z,98071.63
2022-08-22T09:04:15.428Z,98062.53
2022-08-22T09:07:01.659Z,98059.56
2022-08-22T09:09:41.345Z,98075.72
2022-08-22T09:12:41.698Z,98081.13
2022-08-22T09:15:31.446Z,98079.25
2022-08-22T09:18:40.886Z,98080.88
2022-08-22T09:21:31.324Z,98081.66
2022-08-22T09:27:10.765Z,98077.13
2022-08-22T09:30:07.698Z,98086.81
2022-08-22T09:32:57.521Z,98085.75
2022-08-22T09:35:40.085Z,98081.44
2022-08-22T09:38:26.044Z,98076.03
2022-08-22T09:41:17.800Z,98085.75
2022-08-22T09:44:01.098Z,98082.22
2022-08-22T09:46:49.717Z,98085.75
2022-08-22T09:49:33.351Z,98097.59
2022-08-22T09:52:33.259Z,98092.22
2022-08-22T09:55:16.160Z,98087.63
2022-08-22T09:57:56.788Z,98085.75
2022-08-22T10:00:35.481Z,98084.94
2022-08-22T10:03:21.830Z,98083.06
2022-08-22T10:05:59.293Z,98094.66
2022-08-22T10:08:55.576Z,98092.75
2022-08-22T10:11:28.717Z,98103.53
2022-08-22T10:14:01.496Z,98107.03
2022-08-22T10:16:49.240Z,98108.94
2022-08-22T10:19:41.626Z,98104.63
2022-08-22T10:22:39.300Z,98109.75
2022-08-22T10:25:22.699Z,98114.06
2022-08-22T10:28:00.277Z,98113.25
2022-08-22T10:31:13.240Z,98119.47
2022-08-22T10:33:57.309Z,98111.38
2022-08-22T10:36:34.060Z,98106.78
2022-08-22T10:39:11.004Z,98106.78
2022-08-22T10:41:54.542Z,98114.88
2022-08-22T10:44:35.578Z,98112.19
2022-08-22T10:47:13.486Z,98110.28
2022-08-22T10:49:54.548Z,98107.34
2022-08-22T10:52:31.327Z,98104.91
2022-08-22T10:55:20.632Z,98107.34
2022-08-22T10:58:10.758Z,98099.25
2022-08-22T11:00:58.254Z,98103.56
2022-08-22T11:03:26.145Z,98107.91
2022-08-22T11:05:59.136Z,98104.41
2022-08-22T11:08:45.356Z,98103.56
2022-08-22T11:11:25.549Z,98103.56
2022-08-22T11:14:16.367Z,98105.22
2022-08-22T11:17:28.886Z,98100.88
2022-08-22T11:20:44.793Z,98105.22
2022-08-22T11:23:24.417Z,98101.72
2022-08-22T11:26:30.081Z,98099.81
2022-08-22T11:29:39.142Z,98103.56
2022-08-22T11:32:33.957Z,98108.97
2022-08-22T11:35:22.903Z,98108.97
2022-08-22T11:38:22.614Z,98110.59
2022-08-22T11:41:02.567Z,98111.41
2022-08-22T11:43:49.279Z,98116.00
2022-08-22T11:46:50.922Z,98108.47
2022-08-22T11:49:39.432Z,98100.94
2022-08-22T11:52:10.701Z,98097.97
2022-08-22T11:55:02.262Z,98101.22
2022-08-22T11:57:35.666Z,98107.44
2022-08-22T12:00:12.936Z,98102.06
2022-08-22T12:02:51.194Z,98091.25
2022-08-22T12:05:24.712Z,98096.66
2022-08-22T12:08:23.433Z,98092.88
2022-08-22T12:11:08.708Z,98098.28
2022-08-22T12:13:36.346Z,98089.13
2022-08-22T12:16:39.328Z,98101.53
2022-08-22T12:19:23.049Z,98092.34
2022-08-22T12:22:39.484Z,98089.16
2022-08-22T12:25:30.732Z,98089.72
2022-08-22T12:28:15.756Z,98079.47
2022-08-22T12:30:58.692Z,98073.00
2022-08-22T12:33:55.562Z,98071.94
2022-08-22T12:36:23.162Z,98065.47
2022-08-22T12:38:57.090Z,98068.97
2022-08-22T12:42:01.465Z,98070.34
2022-08-22T12:44:58.991Z,98073.59
2022-08-22T12:48:05.637Z,98073.06
2022-08-22T12:50:51.825Z,98078.22
2022-08-22T12:53:38.501Z,98082.78
2022-08-22T12:56:36.918Z,98089.81
2022-08-22T12:59:23.059Z,98077.94
2022-08-22T13:01:55.403Z,98083.31
2022-08-22T13:04:32.630Z,98079.56
2022-08-22T13:07:17.573Z,98081.19
2022-08-22T13:09:54.567Z,98081.19
2022-08-22T13:12:44.576Z,98083.63
2022-08-22T13:15:21.333Z,98082.28
2022-08-22T13:17:55.032Z,98075.84
2022-08-22T13:20:32.362Z,98072.06
2022-08-22T13:23:11.039Z,98068.03
2022-08-22T13:26:00.796Z,98072.63
2022-08-22T13:28:31.377Z,98072.63
2022-08-22T13:31:01.654Z,98068.84
2022-08-22T13:33:35.977Z,98075.88
2022-08-22T13:36:15.447Z,98075.88
2022-08-22T13:39:29.197Z,98074.25
2022-08-22T13:42:00.106Z,98076.94
2022-08-22T13:44:36.092Z,98074.25
2022-08-22T13:47:14.306Z,98072.06
2022-08-22T13:49:50.552Z,98072.06
2022-08-22T13:52:30.889Z,98068.31
2022-08-22T13:55:12.472Z,98066.44
2022-08-22T13:57:54.939Z,98066.69
2022-08-22T14:00:37.745Z,98065.88
2022-08-22T14:03:23.699Z,98069.94
2022-08-22T14:05:53.238Z,98055.38
2022-08-22T14:08:26.941Z,98057.53
2022-08-22T14:10:57.586Z,98055.44
2022-08-22T14:13:31.986Z,98059.78
2022-08-22T14:16:02.592Z,98055.19
2022-08-22T14:18:36.484Z,98051.38
2022-08-22T14:21:42.820Z,98054.94
2022-08-22T14:24:29.371Z,98041.44
2022-08-22T14:27:00.015Z,98042.25
2022-08-22T14:29:50.443Z,98044.38
2022-08-22T14:32:26.759Z,98050.59
2022-08-22T14:35:21.660Z,98045.19
2022-08-22T14:37:59.576Z,98053.28
2022-08-22T14:40:33.773Z,98052.22
2022-08-22T14:43:35.592Z,98039.00
2022-08-22T14:46:14.289Z,98057.06
2022-08-22T14:49:03.409Z,98052.47
2022-08-22T14:51:31.438Z,98058.13
2022-08-22T14:54:21.597Z,98049.44
2022-08-22T14:56:53.295Z,98052.72
2022-08-22T14:59:37.170Z,98045.69
2022-08-22T15:02:14.408Z,98044.06
2022-08-22T15:04:46.398Z,98049.44
2022-08-22T15:07:27.808Z,98050.53
2022-08-22T15:10:03.153Z,98043.50
2022-08-22T15:12:45.131Z,98049.75
2022-08-22T15:15:16.869Z,98040.81
2022-08-22T15:18:01.169Z,98050.53
2022-08-22T15:20:31.298Z,98040.81
2022-08-22T15:23:24.028Z,98047.28
2022-08-22T15:26:03.860Z,98048.34
2022-08-22T15:28:49.716Z,98048.34
2022-08-22T15:31:22.172Z,98042.16
2022-08-22T15:33:51.688Z,98045.66
2022-08-22T15:36:22.593Z,98024.59
2022-08-22T15:39:15.491Z,98031.91
2022-08-22T15:41:46.724Z,98036.50
2022-08-22T15:44:32.967Z,98043.50
2022-08-22T15:47:31.557Z,98051.59
2022-08-22T15:50:14.756Z,98051.84
2022-08-22T15:53:21.665Z,98045.63
2022-08-22T15:56:05.493Z,98043.19
2022-08-22T15:58:48.074Z,98046.72
2022-08-22T16:01:22.398Z,98053.19
2022-08-22T16:03:59.576Z,98054.81
2022-08-22T16:06:48.657Z,98061.25
2022-08-22T16:09:43.419Z,98056.97
2022-08-22T16:12:36.436Z,98067.75
2022-08-22T16:15:26.352Z,98084.75
2022-08-22T16:17:54.666Z,98088.50
2022-08-22T16:20:22.148Z,98091.19
2022-08-22T16:22:58.904Z,98083.94
2022-08-22T16:25:45.093Z,98089.31
2022-08-22T16:28:58.780Z,98092.03
2022-08-22T16:31:37.689Z,98083.94
2022-08-22T16:34:17.382Z,98092.59
2022-08-22T16:36:45.317Z,98085.28
2022-08-22T16:39:23.008Z,98081.78
2022-08-22T16:42:21.822Z,98083.41
2022-08-22T16:44:49.284Z,98090.44
2022-08-22T16:47:32.656Z,98091.50
2022-08-22T16:50:05.265Z,98095.84
2022-08-22T16:52:40.641Z,98096.88
2022-08-22T16:55:30.895Z,98101.22
2022-08-22T16:58:09.309Z,98103.09
2022-08-22T17:00:37.022Z,98105.53
2022-08-22T17:03:10.541Z,98106.63
2022-08-22T17:05:48.508Z,98106.63
2022-08-22T17:09:04.420Z,98107.44
2022-08-22T17:12:06.142Z,98099.34
2022-08-22T17:14:33.867Z,98096.63
2022-08-22T17:17:30.526Z,98100.13
2022-08-22T17:20:14.509Z,98101.22
2022-08-22T17:22:48.857Z,98103.91
2022-08-22T17:25:19.607Z,98105.78
2022-08-22T17:28:13.387Z,98114.72
2022-08-22T17:31:02.583Z,98112.81
2022-08-22T17:33:59.945Z,98112.81
2022-08-22T17:36:46.293Z,98109.31
2022-08-22T17:39:33.431Z,98118.47
2022-08-22T17:42:48.400Z,98117.41
2022-08-22T17:45:31.084Z,98122.81
2022-08-22T17:48:16.621Z,98121.97
2022-08-22T17:50:49.880Z,98121.97
2022-08-22T17:53:45.029Z,98116.56
2022-08-22T17:56:44.247Z,98121.16
2022-08-22T17:59:35.177Z,98119.56
2022-08-22T18:02:13.408Z,98126.56
2022-08-22T18:04:49.702Z,98127.38
2022-08-22T18:07:36.176Z,98127.09
2022-08-22T18:10:19.582Z,98138.69
2022-08-22T18:13:07.660Z,98147.03
2022-08-22T18:15:47.138Z,98146.47
2022-08-22T18:18:44.929Z,98151.31
2022-08-22T18:21:35.799Z,98156.69
2022-08-22T18:24:09.275Z,98149.69
2022-08-22T18:27:01.452Z,98140.53
2022-08-22T18:29:43.987Z,98131.88
2022-08-22T18:32:29.206Z,98124.88
2022-08-22T18:35:14.095Z,98129.47
2022-08-22T18:38:19.229Z,98139.41
2022-08-22T18:41:19.015Z,98134.00
2022-08-22T18:43:48.267Z,98127.00
2022-08-22T18:46:37.440Z,98142.38
2022-08-22T18:49:21.060Z,98137.81
2022-08-22T18:52:17.067Z,98130.22
2022-08-22T18:55:12.657Z,98135.34
2022-08-22T18:57:49.385Z,98136.69
2022-08-22T19:00:38.196Z,98128.84
2022-08-22T19:03:15.185Z,98141.28
2022-08-22T19:06:07.640Z,98132.38
2022-08-22T19:08:43.887Z,98135.88
2022-08-22T19:11:36.483Z,98122.66
2022-08-22T19:14:33.944Z,98130.72
2022-08-22T19:17:15.066Z,98138.81
2022-08-22T19:20:36.200Z,98127.22
2022-08-22T19:23:31.935Z,98123.97
2022-08-22T19:26:24.529Z,98118.84
2022-08-22T19:29:00.251Z,98123.19
2022-08-22T19:31:37.250Z,98121.53
2022-08-22T19:34:30.586Z,98125.31
2022-08-22T19:37:30.455Z,98119.13
2022-08-22T19:40:09.117Z,98125.31
2022-08-22T19:42:39.639Z,98119.91
2022-08-22T19:45:31.338Z,98119.91
2022-08-22T19:48:11.773Z,98123.69
2022-08-22T19:50:43.115Z,98117.22
2022-08-22T19:54:01.447Z,98116.66
2022-08-22T19:57:07.224Z,98118.28
2022-08-22T20:00:05.506Z,98112.09
2022-08-22T20:02:58.118Z,98115.88
2022-08-22T20:05:57.008Z,98113.97
2022-08-22T20:08:31.583Z,98110.47
2022-08-22T20:11:42.630Z,98120.41
2022-08-22T20:14:31.135Z,98111.28
2022-08-22T20:17:39.068Z,98108.59
2022-08-22T20:20:18.388Z,98103.44
2022-08-22T20:23:06.970Z,98104.25
2022-08-22T20:25:50.094Z,98100.50
2022-08-22T20:28:29.772Z,98112.34
2022-08-22T20:31:02.238Z,98109.63
2022-08-22T20:33:34.925Z,98106.94
2022-08-22T20:36:13.844Z,98104.25
2022-08-22T20:38:59.782Z,98102.63
2022-08-22T20:41:35.715Z,98099.69
2022-08-22T20:44:04.602Z,98100.75
2022-08-22T20:46:55.021Z,98106.13
2022-08-22T20:49:28.652Z,98109.63
2022-08-22T20:52:09.756Z,98115.03
2022-08-22T20:54:40.288Z,98119.38
2022-08-22T20:57:17.492Z,98123.13
2022-08-22T20:59:58.062Z,98120.41
2022-08-22T21:02:35.660Z,98118.81
2022-08-22T21:05:11.640Z,98118.81
2022-08-22T21:07:39.402Z,98113.41
2022-08-22T21:10:37.884Z,98112.34
2022-08-22T21:13:11.131Z,98125.81
2022-08-22T21:15:42.744Z,98138.25
2022-08-22T21:18:27.601Z,98136.59
2022-08-22T21:21:08.107Z,98143.63
2022-08-22T21:23:59.926Z,98148.47
2022-08-22T21:26:45.561Z,98149.53
2022-08-22T21:29:13.108Z,98140.88
2022-08-22T21:31:43.465Z,98152.75
2022-08-22T21:34:37.094Z,98139.25
2022-08-22T21:37:14.344Z,98144.91
2022-08-22T21:39:45.988Z,98150.56
2022-08-22T21:42:39.474Z,98164.84
2022-08-22T21:45:30.129Z,98178.59
2022-08-22T21:47:58.532Z,98179.16
2022-08-22T21:50:34.513Z,98180.22
2022-08-22T21:53:11.961Z,98165.91
2022-08-22T21:55:43.095Z,98155.97
2022-08-22T21:58:35.691Z,98138.16
2022-08-22T22:01:26.456Z,98098.78
2022-08-22T22:03:56.462Z,98094.22
2022-08-22T22:06:23.881Z,98075.59
2022-08-22T22:08:51.776Z,98086.38
2022-08-22T22:11:20.853Z,98084.75
2022-08-22T22:13:49.007Z,98082.06
2022-08-22T22:16:23.493Z,98077.72
2022-08-22T22:18:51.305Z,98083.13
2022-08-22T22:21:18.920Z,98081.22
2022-08-22T22:23:46.601Z,98093.09
2022-08-22T22:26:14.445Z,98111.72
2022-08-22T22:28:48.894Z,98121.66
2022-08-22T22:31:18.264Z,98127.91
2022-08-22T22:33:46.172Z,98129.50
2022-08-22T22:36:21.926Z,98115.47
2022-08-22T22:38:52.039Z,98102.00
2022-08-22T22:41:25.230Z,98103.06
2022-08-22T22:43:54.998Z,98110.59
2022-08-22T22:46:23.311Z,98091.75
2022-08-22T22:48:50.854Z,98096.03
2022-08-22T22:51:19.909Z,98089.03
2022-08-22T22:53:47.593Z,98083.66
2022-08-22T22:56:21.464Z,98088.22
2022-08-22T22:59:01.166Z,98078.25
2022-08-22T23:01:39.028Z,98090.09
2022-08-22T23:04:08.886Z,98084.16
2022-08-22T23:06:36.354Z,98076.06
2022-08-22T23:09:03.835Z,98078.50
2022-08-22T23:11:31.656Z,98067.16
2022-08-22T23:14:00.894Z,98075.25
2022-08-22T23:16:28.859Z,98077.16
2022-08-22T23:18:56.868Z,98079.84
2022-08-22T23:21:28.198Z,98082.53
2022-08-22T23:23:58.337Z,98086.28
2022-08-22T23:26:26.625Z,98074.69
2022-08-22T23:28:54.206Z,98086.28
2022-08-22T23:31:37.634Z,98080.91
2022-08-22T23:34:07.489Z,98081.97
2022-08-22T23:36:35.287Z,98073.91
2022-08-22T23:39:04.547Z,98065.00
2022-08-22T23:41:32.470Z,98068.50
2022-08-22T23:44:00.177Z,98072.28
2022-08-22T23:46:28.037Z,98075.78
2022-08-22T23:48:58.969Z,98066.06
2022-08-22T23:51:27.433Z,98061.50
2022-08-22T23:53:56.508Z,98070.66
2022-08-22T23:56:40.280Z,98076.03
2022-08-22T23:59:11.531Z,98081.44
